Tiempo atmosférico en la estación meteorológica de Zorita, Cáceres (413 m.)



Fecha
DESCASC
Temp. máxima en grados centígrados (hora)
DESCASC
Temp. mínima en grados centígrados (hora)
DESCASC
Temp. media en grados centígrados
DESCASC
Racha de viento máxima en m/sg (hora)
DESCASC
Velocidad máxima media en intervalos de 10 minutos(hora)
DESCASC
Precipitaciones diarias en mm
DESCASC
Precipitaciones de 00:00 a 06:00 en mm
DESCASC
Precipitaciones de 06:00 a 12:00 en mm
DESCASC
Precipitaciones de 12:00 a 18:00 en mm
DESCASC
Precipitaciones de 18:00 a 24:00 en mm
DESCASC
29-03-2020 18.8 (17:50) 7.5 (08:20) 13.1 5.56 (16:00) 3.89 (01:10) 0 0 0 0 0
28-03-2020 16.4 (17:30) 4.7 (07:00) 10.5 11.67 (09:40) 8.06 (09:40) 0 0 0 0 0
27-03-2020 13 (14:00) 6.2 (03:50) 9.6 10.28 (12:40) 6.94 (00:10) 0 0 0 0 0
26-03-2020 18.6 (16:50) 7.9 (00:00) 13.3 13.61 (15:30) 9.17 (15:00) 0.2 0.2 0 0 0
25-03-2020 18.5 (17:00) 9.2 (00:00) 13.8 9.44 (00:20) 6.39 (06:10) 0.8 0 0 0 0.8
24-03-2020 16.1 (17:10) 10.6 (00:00) 13.4 18.06 (14:10) 12.22 (14:20) 0 0 0 0 0
23-03-2020 16.1 (16:50) 7.7 (00:00) 11.9 9.72 (17:10) 6.67 (21:20) 0.2 0 0 0.2 0
22-03-2020 15.6 (15:20) 6.7 (06:40) 11.2 7.22 (01:10) 4.72 (01:10) 3.2 0.4 0 2.6 0.2
21-03-2020 13.7 (16:10) 7.4 (00:00) 10.5 11.39 (18:40) 7.78 (18:00) 23.6 13.2 6.6 0.2 3.6
20-03-2020 15.4 (16:40) 11.1 (00:00) 13.3 10.83 (18:00) 6.39 (18:00) 10.8 2 1.2 5.2 2.4
19-03-2020 19.2 (15:30) 10.9 (00:00) 15.1 12.78 (01:00) 7.78 (00:40) 0 0 0 0 0
18-03-2020 20.3 (15:30) 12.3 (00:00) 16.3 16.39 (06:30) 11.67 (06:30) 0 0 0 0 0
17-03-2020 17.3 (18:00) 5.3 (00:00) 11.3 13.33 (10:30) 9.44 (10:30) 0 0 0 0 0
16-03-2020 10.6 (16:00) 3.3 (00:00) 7 17.22 (13:30) 12.5 (10:10) 0 0 0 0 0
15-03-2020 21.7 (15:50) 8 (00:00) 14.9 12.5 (19:30) 8.89 (17:10) 0 0 0 0 0
14-03-2020 21.4 (17:30) 11.2 (00:00) 16.3 6.94 (04:40) 5.28 (04:50) 0 0 0 0 0
13-03-2020 20.3 (16:40) 11 (07:50) 15.6 6.94 (17:30) 4.44 (17:30) 0 0 0 0 0
12-03-2020 25 (17:30) 12.9 (00:00) 18.9 7.22 (20:10) 5 (00:10) 0 0 0 0 0
11-03-2020 24.9 (15:30) 11.5 (00:00) 18.2 6.39 (14:00) 4.72 (23:50) 0 0 0 0 0
10-03-2020 22.9 (16:50) 9 (00:00) 15.9 5.56 (07:30) 4.44 (07:30) 0 0 0 0 0
09-03-2020 18.5 (16:30) 5.9 (00:00) 12.2 8.61 (14:50) 6.39 (04:10) 0 0 0 0 0
08-03-2020 17.3 (16:20) 5.1 (00:00) 11.2 8.89 (17:20) 6.94 (17:20) 0 0 0 0 0
07-03-2020 17 (17:30) 4.7 (00:00) 10.8 12.22 (02:10) 8.33 (02:20) 0 0 0 0 0
06-03-2020 14.5 (16:50) 5.7 (00:00) 10.1 16.39 (12:10) 11.67 (16:00) 0 0 0 0 0
05-03-2020 15.6 (16:40) 7.1 (00:00) 11.4 16.67 (13:30) 12.22 (12:30) 1.6 0 1.4 0.2 0
04-03-2020 16.9 (17:30) 11 (00:00) 13.9 10.56 (16:40) 7.22 (14:30) 0 0 0 0 0
03-03-2020 15.3 (17:40) 5.6 (00:00) 10.5 12.22 (13:00) 8.89 (13:00) 0 0 0 0 0
02-03-2020 14.1 (14:50) 6.3 (00:00) 10.2 23.06 (08:10) 15 (08:10) 5.6 4.4 1.2 0 0
01-03-2020 15.8 (17:10) 9.8 (00:00) 12.8 16.11 (23:10) 11.39 (23:00) 1.4 0 0 0.8 0.6
29-02-2020 15.3 (15:30) 6.7 (00:00) 11 12.22 (15:30) 9.44 (16:20) 0 0 0 0 0

Gráficas

Temp. máximas Temp. mínimas Temp. medias Precipitaciones Rachas de viento máximas Velocidades máximas media en intervalos de 10 minutos

Datos horarios

Fecha y hora oficial Temperatura (ºC) Velocidad del viento (km/h) Dirección del viento Racha (km/h) Dirección de racha Precipitación (mm) Presión (hPa) Tendencia (hPa) Humedad (%)
2020-03-29 23:00:00 12.8 13 Noroeste 18 Noroeste 0 -- -- 63
2020-03-29 22:00:00 13.2 13 Noroeste 18 Noroeste 0 -- -- 62
2020-03-29 21:00:00 14 9 Noroeste 12 Noroeste 0 -- -- 60
2020-03-29 20:00:00 16.4 7 Oeste 11 Oeste 0 -- -- 51
2020-03-29 19:00:00 17.5 8 Sudoeste 20 Sudoeste 0 -- -- 41
2020-03-29 18:00:00 18.5 12 Sudoeste 20 Sudoeste 0 -- -- 35
2020-03-29 17:00:00 18.5 8 Oeste 19 Sudoeste 0 -- -- 38
2020-03-29 16:00:00 18.3 11 Sudoeste 20 Sudoeste 0 -- -- 35
2020-03-29 15:00:00 17.9 9 Sur 17 Sur 0 -- -- 39
2020-03-29 14:00:00 16.9 8 Sur 15 Sudeste 0 -- -- 45
2020-03-29 13:00:00 15.9 7 Sur 15 Este 0 -- -- 47
2020-03-29 12:00:00 14.4 10 Sudeste 15 Este 0 -- -- 52
2020-03-29 11:00:00 13.2 8 Sudeste 12 Sudeste 0 -- -- 55
2020-03-29 10:00:00 10.1 7 Sudoeste 14 Nordeste 0 -- -- 62
2020-03-29 09:00:00 8.9 9 Este 10 Este 0 -- -- 58
2020-03-29 08:00:00 7.8 4 Norte 11 Nordeste 0 -- -- 60
2020-03-29 07:00:00 10.6 10 Nordeste 14 Nordeste 0 -- -- 49
2020-03-29 06:00:00 8 8 Nordeste 11 Nordeste 0 -- -- 58
2020-03-29 05:00:00 10.6 6 Nordeste 17 Nordeste 0 -- -- 52
2020-03-29 03:00:00 11.2 8 Este 17 Nordeste 0 -- -- 52
2020-03-29 01:00:00 11.7 13 Nordeste 17 Nordeste 0 -- -- 52
2020-03-29 00:00:00 9.5 6 Nordeste 11 Nordeste 0 -- -- 65
2020-03-28 23:00:00 9.9 7 Norte 10 Norte 0 -- -- 65
2020-03-28 22:00:00 10.2 9 Norte 12 Norte 0 -- -- 65
2020-03-28 21:00:00 11.1 4 Noroeste 8 Noroeste 0 -- -- 62
2020-03-28 20:00:00 14.1 3 Sudeste 10 Sudeste 0 -- -- 55
2020-03-28 19:00:00 15.1 8 Sudeste 18 Este 0 -- -- 52
2020-03-28 18:00:00 16.2 12 Sudeste 23 Sudeste 0 -- -- 44
2020-03-28 17:00:00 16.2 13 Sudeste 23 Este 0 -- -- 48
2020-03-28 16:00:00 15.5 12 Este 27 Sudeste 0 -- -- 50
2020-03-28 15:00:00 15.4 16 Sudeste 30 Sudeste 0 -- -- 51
2020-03-28 14:00:00 14.5 19 Este 32 Sudeste 0 -- -- 49
2020-03-28 13:00:00 13.4 18 Este 39 Este 0 -- -- 56
2020-03-28 12:00:00 12.2 24 Este 36 Este 0 -- -- 59
2020-03-28 11:00:00 11 23 Este 41 Este 0 -- -- 61
2020-03-28 10:00:00 9.8 27 Este 42 Este 0 -- -- 64
2020-03-28 09:00:00 7.7 28 Este 41 Este 0 -- -- 69
2020-03-28 08:00:00 6.6 26 Este 37 Este 0 -- -- 73
2020-03-28 07:00:00 4.7 12 Este 22 Este 0 -- -- 79
2020-03-28 06:00:00 5.3 18 Este 30 Nordeste 0 -- -- 77
2020-03-28 05:00:00 5.5 13 Nordeste 24 Este 0 -- -- 76
2020-03-28 04:00:00 6.4 16 Este 38 Este 0 -- -- 71
2020-03-28 03:00:00 6.2 24 Este 30 Este 0 -- -- 71
2020-03-28 02:00:00 6.8 23 Este 31 Nordeste 0 -- -- 69
2020-03-28 01:00:00 6.7 19 Este 28 Este 0 -- -- 70
2020-03-28 00:00:00 7 15 Este 24 Este 0 -- -- 69
2020-03-27 23:00:00 7.8 17 Nordeste 24 Este 0 -- -- 65
2020-03-27 22:00:00 7.4 16 Este 22 Este 0 -- -- 69
2020-03-27 21:00:00 8 13 Este 24 Este 0 -- -- 67
2020-03-27 20:00:00 9.6 14 Este 24 Este 0 -- -- 60
2020-03-27 19:00:00 11.1 20 Este 32 Este 0 -- -- 57
2020-03-27 18:00:00 12 19 Este 28 Este 0 -- -- 44
2020-03-27 17:00:00 12.3 12 Este 22 Este 0 -- -- 52
2020-03-27 16:00:00 11.7 12 Este 24 Este 0 -- -- 55
2020-03-27 15:00:00 11.6 19 Este 35 Este 0 -- -- 58
2020-03-27 14:00:00 13 21 Este 33 Sudeste 0 -- -- 60
2020-03-27 13:00:00 12.4 22 Sudeste 37 Sudeste 0 -- -- 64
2020-03-27 12:00:00 11.5 14 Sudeste 23 Sudeste 0 -- -- 70
2020-03-27 11:00:00 8.8 8 Sur 13 Sur 0 -- -- 93
2020-03-27 10:00:00 7.2 9 Este 14 Sudeste 0 -- -- 96
2020-03-27 09:00:00 7.1 10 Sudeste 17 Nordeste 0 -- -- 95
2020-03-27 08:00:00 7.3 14 Este 24 Este 0 -- -- 91
2020-03-27 07:00:00 7 14 Este 20 Este 0 -- -- 95
2020-03-27 06:00:00 7 9 Nordeste 15 Nordeste 0 -- -- 96
2020-03-27 05:00:00 6.5 6 Nordeste 13 Nordeste 0 -- -- 96
2020-03-27 04:00:00 6.2 5 Norte 17 Oeste 0 -- -- 92
2020-03-27 03:00:00 6.8 5 Oeste 12 Sudoeste 0 -- -- 94
2020-03-27 02:00:00 7.7 6 Sudoeste 12 Sur 0 -- -- 88
2020-03-27 01:00:00 8.9 8 Oeste 29 Noroeste 0 -- -- 78
2020-03-27 00:00:00 10.5 21 Noroeste 27 Noroeste 0 -- -- 71
2020-03-26 23:00:00 11.5 18 Noroeste 23 Noroeste 0 -- -- 67
2020-03-26 22:00:00 12.2 10 Noroeste 21 Noroeste 0 -- -- 64
2020-03-26 21:00:00 13.3 17 Noroeste 23 Noroeste 0 -- -- 61
2020-03-26 20:00:00 14.5 16 Noroeste 30 Oeste 0 -- -- 46
2020-03-26 19:00:00 17.1 22 Oeste 37 Oeste 0 -- -- 39
2020-03-26 18:00:00 18.1 30 Oeste 46 Oeste 0 -- -- 34
2020-03-26 17:00:00 18.4 30 Noroeste 45 Noroeste 0 -- -- 36
2020-03-26 16:00:00 18.3 31 Oeste 49 Oeste 0 -- -- 33
2020-03-26 15:00:00 17.8 33 Noroeste 45 Noroeste 0 -- -- 33
2020-03-26 14:00:00 17.3 30 Oeste 41 Oeste 0 -- -- 43
2020-03-26 13:00:00 16.7 28 Noroeste 40 Oeste 0 -- -- 40
2020-03-26 12:00:00 16.1 26 Noroeste 37 Oeste 0 -- -- 47
2020-03-26 11:00:00 14.8 23 Noroeste 31 Noroeste 0 -- -- 57
2020-03-26 10:00:00 12.7 17 Noroeste 24 Noroeste 0 -- -- 70
2020-03-26 09:00:00 11.1 15 Noroeste 24 Noroeste 0 -- -- 76
2020-03-26 08:00:00 9.1 16 Noroeste 21 Noroeste 0 -- -- 81
2020-03-26 07:00:00 8.5 13 Oeste 21 Noroeste 0 -- -- 85
2020-03-26 06:00:00 8.8 14 Noroeste 26 Noroeste 0 -- -- 85
2020-03-26 05:00:00 10 21 Noroeste 27 Noroeste 0.2 -- -- 82
2020-03-26 04:00:00 9.4 4 Noroeste 12 Noroeste 0 -- -- 87
2020-03-26 03:00:00 9.6 8 Noroeste 13 Noroeste 0 -- -- 89
2020-03-26 02:00:00 9.6 9 Noroeste 10 Noroeste 0 -- -- 93
2020-03-26 01:00:00 10.4 3 Nordeste 13 Nordeste 0 -- -- 87
2020-03-26 00:00:00 11 13 Este 20 Este 0.8 -- -- 83
2020-03-25 23:00:00 11.2 9 Nordeste 28 Este 0 -- -- 81
2020-03-25 22:00:00 13.8 18 Este 32 Este 0 -- -- 66
2020-03-25 21:00:00 14.5 0 Calma 12 Oeste 0 -- -- 62
2020-03-25 20:00:00 15.1 10 Oeste 20 Oeste 0 -- -- 57
2020-03-25 19:00:00 17.1 14 Oeste 21 Oeste 0 -- -- 51
2020-03-25 18:00:00 17.7 17 Oeste 24 Oeste 0 -- -- 47
2020-03-25 17:00:00 18.5 18 Oeste 26 Oeste 0 -- -- 47
2020-03-25 16:00:00 17.6 13 Oeste 26 Sudoeste 0 -- -- 51
2020-03-25 15:00:00 17.4 14 Sudoeste 22 Oeste 0 -- -- 51
2020-03-25 14:00:00 16.5 11 Sudoeste 20 Sudoeste 0 -- -- 46
2020-03-25 13:00:00 15.8 8 Sudoeste 14 Sur 0 -- -- 49
2020-03-25 12:00:00 14.7 8 Sur 18 Sudeste 0 -- -- 54
2020-03-25 11:00:00 13.4 9 Sudeste 22 Este 0 -- -- 55
2020-03-25 10:00:00 12.4 14 Este 30 Este 0 -- -- 56
2020-03-25 09:00:00 11.1 21 Este 30 Nordeste 0 -- -- 59
2020-03-25 08:00:00 9.5 20 Nordeste 31 Este 0 -- -- 62
2020-03-25 07:00:00 9.6 21 Nordeste 31 Nordeste 0 -- -- 61
2020-03-25 06:00:00 9.3 22 Este 29 Nordeste 0 -- -- 64
2020-03-25 05:00:00 9.7 19 Nordeste 27 Nordeste 0 -- -- 64
2020-03-25 04:00:00 9.7 17 Nordeste 27 Este 0 -- -- 67
2020-03-25 03:00:00 10.1 17 Nordeste 23 Este 0 -- -- 67
2020-03-25 02:00:00 10.4 15 Nordeste 28 Este 0 -- -- 68
2020-03-25 01:00:00 10.3 20 Este 34 Nordeste 0 -- -- 70
2020-03-25 00:00:00 10.6 21 Este 30 Nordeste 0 -- -- 69
2020-03-24 23:00:00 10.9 15 Nordeste 26 Este 0 -- -- 69
2020-03-24 22:00:00 11.4 16 Este 34 Nordeste 0 -- -- 68
2020-03-24 21:00:00 12.3 19 Este 31 Este 0 -- -- 64
2020-03-24 20:00:00 13.5 23 Este 42 Nordeste 0 -- -- 59
2020-03-24 19:00:00 14.5 28 Este 50 Este 0 -- -- 55
2020-03-24 18:00:00 15.3 35 Este 57 Este 0 -- -- 54
2020-03-24 17:00:00 15.9 34 Este 50 Este 0 -- -- 52
2020-03-24 16:00:00 15.5 35 Este 64 Este 0 -- -- 53
2020-03-24 15:00:00 15.6 34 Este 65 Este 0 -- -- 56
2020-03-24 14:00:00 15.2 38 Este 56 Nordeste 0 -- -- 55
2020-03-24 13:00:00 14.5 35 Este 54 Este 0 -- -- 58
2020-03-24 12:00:00 14.3 36 Este 49 Este 0 -- -- 58
2020-03-24 11:00:00 14 31 Este 50 Este 0 -- -- 61
2020-03-24 10:00:00 13.8 32 Este 53 Este 0 -- -- 61
2020-03-24 09:00:00 13.2 27 Nordeste 45 Nordeste 0 -- -- 63
2020-03-24 08:00:00 12.1 24 Nordeste 42 Nordeste 0 -- -- 67
2020-03-24 07:00:00 12.1 22 Nordeste 45 Nordeste 0 -- -- 66
2020-03-24 06:00:00 12.3 27 Este 41 Este 0 -- -- 65
2020-03-24 05:00:00 12.1 24 Este 36 Este 0 -- -- 65
2020-03-24 04:00:00 12.1 24 Este 38 Este 0 -- -- 67
2020-03-24 03:00:00 12 19 Nordeste 30 Nordeste 0 -- -- 70
2020-03-24 02:00:00 11.6 15 Nordeste 30 Este 0 -- -- 75
2020-03-24 01:00:00 11.8 21 Este 34 Este 0 -- -- 72
2020-03-24 00:00:00 11.8 21 Este 30 Este 0 -- -- 68
2020-03-23 23:00:00 12.3 22 Este 32 Este 0 -- -- 63
2020-03-23 22:00:00 12.1 19 Nordeste 35 Nordeste 0 -- -- 63
2020-03-23 21:00:00 12.9 20 Nordeste 30 Nordeste 0 -- -- 60
2020-03-23 20:00:00 12.7 6 Nordeste 16 Este 0 -- -- 60
2020-03-23 19:00:00 14.9 12 Nordeste 27 Este 0 -- -- 52
2020-03-23 18:00:00 15.2 15 Este 35 Este 0.2 -- -- 52
2020-03-23 17:00:00 15.9 23 Este 34 Este 0 -- -- 53
2020-03-23 16:00:00 15.2 19 Este 29 Este 0 -- -- 57
2020-03-23 15:00:00 14.4 16 Nordeste 33 Nordeste 0 -- -- 69
2020-03-23 14:00:00 13.7 15 Nordeste 26 Nordeste 0 -- -- 65
2020-03-23 13:00:00 13.6 13 Nordeste 27 Este 0 -- -- 65
2020-03-23 12:00:00 13.4 19 Este 30 Este 0 -- -- 64
2020-03-23 11:00:00 12.7 18 Este 30 Este 0 -- -- 70
2020-03-23 10:00:00 11.9 17 Este 26 Este 0 -- -- 74
2020-03-23 09:00:00 10.3 13 Este 20 Este 0 -- -- 84
2020-03-23 08:00:00 9.1 8 Nordeste 17 Nordeste 0 -- -- 87
2020-03-23 07:00:00 8.8 9 Nordeste 15 Este 0 -- -- 88
2020-03-23 06:00:00 8.4 4 Este 5 Este 0 -- -- 91
2020-03-23 05:00:00 7.9 3 Noroeste 8 Nordeste 0 -- -- 92
2020-03-23 04:00:00 8.7 5 Nordeste 10 Este 0 -- -- 90
2020-03-23 03:00:00 8.1 3 Este 6 Sudeste 0 -- -- 92
2020-03-23 02:00:00 9 4 Norte 13 Este 0 -- -- 93
2020-03-23 01:00:00 9.3 7 Norte 11 Norte 0 -- -- 91
2020-03-23 00:00:00 9.3 8 Noroeste 10 Noroeste 0 -- -- 93
2020-03-22 23:00:00 9.4 4 Este 13 Sudeste 0 -- -- 88
2020-03-22 22:00:00 9.7 7 Nordeste 17 Nordeste 0 -- -- 89
2020-03-22 21:00:00 10.8 9 Este 15 Este 0 -- -- 86
2020-03-22 20:00:00 10.7 12 Noroeste 14 Noroeste 0.2 -- -- 88
2020-03-22 19:00:00 11.4 5 Sudoeste 7 Oeste 0 -- -- 83
2020-03-22 18:00:00 11.8 3 Sudeste 12 Este 0 -- -- 75
2020-03-22 17:00:00 10.7 9 Este 26 Este 2.6 -- -- 82
2020-03-22 16:00:00 14.6 4 Sudoeste 17 Sur 0 -- -- 58
2020-03-22 15:00:00 15.2 6 Sur 18 Norte 0 -- -- 60
2020-03-22 14:00:00 14 6 Sudoeste 17 Este 0 -- -- 66
2020-03-22 13:00:00 13.1 4 Sudeste 15 Este 0 -- -- 66
2020-03-22 12:00:00 12.1 7 Sudeste 17 Este 0 -- -- 72
2020-03-22 11:00:00 11.4 8 Este 17 Este 0 -- -- 72
2020-03-22 10:00:00 10.4 7 Este 14 Este 0 -- -- 79
2020-03-22 09:00:00 9.2 8 Este 12 Este 0 -- -- 83
2020-03-22 08:00:00 7.6 7 Nordeste 15 Este 0 -- -- 89
2020-03-22 07:00:00 6.9 10 Nordeste 17 Este 0 -- -- 91
2020-03-22 06:00:00 7.1 10 Este 19 Este 0 -- -- 90
2020-03-22 05:00:00 7 12 Este 18 Este 0 -- -- 92
2020-03-22 04:00:00 7.7 12 Este 16 Este 0 -- -- 90
2020-03-22 03:00:00 7.8 13 Este 23 Este 0.2 -- -- 90
2020-03-22 02:00:00 8.3 17 Este 26 Este 0.2 -- -- 90
2020-03-22 01:00:00 8.9 13 Este 24 Este 0 -- -- 88
2020-03-22 00:00:00 8.9 11 Nordeste 25 Nordeste 0 -- -- 85
2020-03-21 23:00:00 8.9 14 Nordeste 23 Este 0.6 -- -- 91
2020-03-21 22:00:00 9 14 Este 23 Este 1 -- -- 93
2020-03-21 21:00:00 9.1 10 Este 15 Nordeste 0.4 -- -- 92
2020-03-21 20:00:00 9.2 9 Este 25 Sudeste 0.4 -- -- 90
2020-03-21 19:00:00 9.4 12 Sur 41 Sudeste 1.2 -- -- 88
2020-03-21 18:00:00 11.8 28 Sudeste 38 Sudeste 0 -- -- 74
2020-03-21 17:00:00 12.8 17 Este 29 Este 0.2 -- -- 65
2020-03-21 16:00:00 13.5 13 Este 24 Este 0 -- -- 62
2020-03-21 15:00:00 12.7 14 Este 22 Este 0 -- -- 65
2020-03-21 14:00:00 11.8 9 Este 20 Este 0 -- -- 70
2020-03-21 13:00:00 10.8 11 Este 18 Este 0 -- -- 82
2020-03-21 12:00:00 9.6 10 Este 20 Este 0 -- -- 88
2020-03-21 11:00:00 8.7 14 Este 23 Este 0.2 -- -- 92
2020-03-21 10:00:00 7.6 15 Este 23 Este 1.2 -- -- 93
2020-03-21 09:00:00 7.7 14 Este 21 Este 0.8 -- -- 94
2020-03-21 08:00:00 7.9 16 Este 21 Este 1.4 -- -- 94
2020-03-21 07:00:00 8.2 4 Norte 22 Sudoeste 3 -- -- 95
2020-03-21 06:00:00 8.6 22 Sudoeste 33 Sudoeste 4.6 -- -- 95
2020-03-21 05:00:00 8.9 7 Noroeste 33 Sudoeste 5.6 -- -- 96
2020-03-21 04:00:00 9.9 14 Oeste 33 Sudoeste 1.2 -- -- 89
2020-03-21 03:00:00 10.8 8 Este 13 Este 0.2 -- -- 95
2020-03-21 02:00:00 10.1 12 Norte 21 Norte 0.8 -- -- 91
2020-03-21 01:00:00 10.9 6 Noroeste 30 Sudoeste 0.8 -- -- 92
2020-03-21 00:00:00 12.1 17 Este 26 Este 0 -- -- 86
2020-03-20 23:00:00 12.1 17 Este 27 Nordeste 0 -- -- 87
2020-03-20 22:00:00 13 15 Nordeste 20 Nordeste 0 -- -- 83
2020-03-20 21:00:00 11.4 8 Nordeste 10 Nordeste 0 -- -- 91
2020-03-20 20:00:00 12.2 9 Norte 13 Noroeste 0 -- -- 94
2020-03-20 19:00:00 12.7 6 Noroeste 17 Sudoeste 2.4 -- -- 93
2020-03-20 18:00:00 13.2 23 Sudoeste 39 Sudoeste 5.2 -- -- 85
2020-03-20 17:00:00 15.4 18 Este 25 Este 0 -- -- 67
2020-03-20 16:00:00 14.7 5 Este 17 Este 0 -- -- 73
2020-03-20 15:00:00 14.8 9 Nordeste 24 Este 0 -- -- 72
2020-03-20 14:00:00 13.9 14 Este 27 Este 0 -- -- 74
2020-03-20 13:00:00 14.4 19 Este 30 Este 0 -- -- 72
2020-03-20 12:00:00 13.5 18 Este 27 Este 0 -- -- 77
2020-03-20 11:00:00 13 16 Este 29 Este 0 -- -- 77
2020-03-20 10:00:00 12.3 21 Este 30 Este 0 -- -- 80
2020-03-20 09:00:00 11.9 21 Este 29 Este 0.2 -- -- 80
2020-03-20 08:00:00 11.1 18 Este 29 Este 0 -- -- 81
2020-03-20 07:00:00 11.4 21 Este 28 Este 1 -- -- 77
2020-03-20 06:00:00 11.7 19 Nordeste 27 Este 2 -- -- 78
2020-03-20 05:00:00 13 21 Este 29 Este 0 -- -- 65
2020-03-20 04:00:00 13.2 19 Este 25 Este 0 -- -- 64
2020-03-20 03:00:00 13.6 19 Este 28 Este 0 -- -- 62
2020-03-20 02:00:00 14 21 Nordeste 30 Nordeste 0 -- -- 60
2020-03-20 01:00:00 14.1 20 Nordeste 28 Nordeste 0 -- -- 60
2020-03-20 00:00:00 14.3 18 Nordeste 27 Nordeste 0 -- -- 59
2020-03-19 23:00:00 14.9 13 Este 18 Este 0 -- -- 58
2020-03-19 22:00:00 15.5 10 Nordeste 17 Nordeste 0 -- -- 56
2020-03-19 21:00:00 15.8 10 Nordeste 18 Nordeste 0 -- -- 54
2020-03-19 20:00:00 16.2 8 Este 17 Este 0 -- -- 52
2020-03-19 19:00:00 17.3 13 Este 20 Sudeste 0 -- -- 49
2020-03-19 18:00:00 18.6 16 Este 30 Este 0 -- -- 44
2020-03-19 17:00:00 18.8 16 Este 24 Este 0 -- -- 41
2020-03-19 16:00:00 18.8 17 Nordeste 31 Este 0 -- -- 42
2020-03-19 15:00:00 18.7 21 Este 31 Sudeste 0 -- -- 39
2020-03-19 14:00:00 18 20 Este 36 Este 0 -- -- 44
2020-03-19 13:00:00 16.7 26 Este 37 Este 0 -- -- 47
2020-03-19 12:00:00 15.5 22 Este 34 Este 0 -- -- 48
2020-03-19 11:00:00 14.1 24 Este 39 Este 0 -- -- 55
2020-03-19 10:00:00 13.3 26 Nordeste 36 Nordeste 0 -- -- 54
2020-03-19 09:00:00 11.5 24 Este 32 Este 0 -- -- 54
2020-03-19 08:00:00 11 19 Este 28 Este 0 -- -- 46
2020-03-19 07:00:00 11.5 22 Nordeste 28 Este 0 -- -- 43
2020-03-19 06:00:00 12 20 Este 33 Nordeste 0 -- -- 41
2020-03-19 05:00:00 11.9 20 Nordeste 31 Nordeste 0 -- -- 40
2020-03-19 04:00:00 12.2 20 Este 28 Este 0 -- -- 41
2020-03-19 03:00:00 12.9 21 Este 43 Este 0 -- -- 39
2020-03-19 02:00:00 13.2 24 Este 38 Este 0 -- -- 45
2020-03-19 01:00:00 14.4 28 Este 46 Este 0 -- -- 43
2020-03-19 00:00:00 15 29 Este 41 Este 0 -- -- 41
2020-03-18 23:00:00 15.4 27 Nordeste 45 Este 0 -- -- 42
2020-03-18 22:00:00 15.7 25 Este 43 Este 0 -- -- 42
2020-03-18 21:00:00 16.6 36 Este 51 Este 0 -- -- 42
2020-03-18 20:00:00 16.4 21 Este 28 Este 0 -- -- 55
2020-03-18 19:00:00 16.9 15 Este 40 Este 0 -- -- 52
2020-03-18 18:00:00 17.8 30 Este 49 Este 0 -- -- 48
2020-03-18 17:00:00 18.4 33 Este 46 Este 0 -- -- 46
2020-03-18 16:00:00 20 30 Este 48 Este 0 -- -- 44
2020-03-18 15:00:00 19.9 27 Este 44 Este 0 -- -- 45
2020-03-18 14:00:00 18.3 29 Este 48 Este 0 -- -- 44
2020-03-18 13:00:00 18.6 36 Este 51 Este 0 -- -- 43
2020-03-18 12:00:00 17.4 38 Este 56 Este 0 -- -- 44
2020-03-18 11:00:00 15.6 39 Este 56 Este 0 -- -- 50
2020-03-18 10:00:00 14.1 36 Este 54 Este 0 -- -- 56
2020-03-18 09:00:00 13 26 Este 52 Este 0 -- -- 60
2020-03-18 08:00:00 12.7 34 Este 55 Este 0 -- -- 59
2020-03-18 07:00:00 12.8 40 Este 59 Este 0 -- -- 59
2020-03-18 06:00:00 12.3 37 Este 54 Este 0 -- -- 62
2020-03-18 05:00:00 12.7 32 Este 51 Nordeste 0 -- -- 61
2020-03-18 04:00:00 13.1 28 Este 51 Nordeste 0 -- -- 61
2020-03-18 03:00:00 13.7 36 Este 51 Este 0 -- -- 65
2020-03-18 02:00:00 14.2 28 Este 44 Este 0 -- -- 65
2020-03-18 01:00:00 14.8 27 Este 49 Este 0 -- -- 62
2020-03-18 00:00:00 14.8 33 Este 48 Nordeste 0 -- -- 64
2020-03-17 23:00:00 15.1 28 Este 41 Este 0 -- -- 63
2020-03-17 22:00:00 15.7 24 Este 40 Este 0 -- -- 60
2020-03-17 21:00:00 15.2 19 Este 27 Este 0 -- -- 53
2020-03-17 20:00:00 15.2 14 Nordeste 23 Este 0 -- -- 48
2020-03-17 19:00:00 16.3 12 Este 37 Este 0 -- -- 44
2020-03-17 18:00:00 17.3 24 Este 40 Este 0 -- -- 38
2020-03-17 17:00:00 16.9 23 Este 43 Este 0 -- -- 35
2020-03-17 16:00:00 16.3 27 Este 43 Este 0 -- -- 37
2020-03-17 15:00:00 15.6 30 Este 43 Este 0 -- -- 41
2020-03-17 14:00:00 15 25 Este 44 Este 0 -- -- 40
2020-03-17 13:00:00 13.7 30 Este 41 Este 0 -- -- 43
2020-03-17 12:00:00 13 26 Este 43 Este 0 -- -- 48
2020-03-17 11:00:00 11.6 30 Este 48 Este 0 -- -- 52
2020-03-17 10:00:00 10.7 30 Este 48 Este 0 -- -- 51
2020-03-17 09:00:00 8.7 15 Este 22 Este 0 -- -- 58
2020-03-17 08:00:00 6.5 13 Este 20 Este 0 -- -- 64
2020-03-17 07:00:00 5.7 9 Este 12 Este 0 -- -- 69
2020-03-17 06:00:00 6.8 7 Este 22 Nordeste 0 -- -- 66
2020-03-17 05:00:00 7.3 19 Este 36 Nordeste 0 -- -- 65
2020-03-17 04:00:00 7 17 Este 26 Este 0 -- -- 65
2020-03-17 03:00:00 6.4 18 Este 27 Nordeste 0 -- -- 67
2020-03-17 02:00:00 6.9 18 Nordeste 31 Nordeste 0 -- -- 66
2020-03-17 01:00:00 6.9 16 Nordeste 27 Nordeste 0 -- -- 64
2020-03-17 00:00:00 5.9 3 Sudeste 9 Nordeste 0 -- -- 68
2020-03-16 23:00:00 6.6 9 Nordeste 15 Nordeste 0 -- -- 66
2020-03-16 22:00:00 5.2 6 Nordeste 21 Noroeste 0 -- -- 75
2020-03-16 21:00:00 6.5 13 Nordeste 22 Norte 0 -- -- 67
2020-03-16 20:00:00 6.3 15 Noroeste 39 Noroeste 0 -- -- 74
2020-03-16 19:00:00 6.9 22 Noroeste 53 Noroeste 0 -- -- 74
2020-03-16 18:00:00 8 39 Noroeste 59 Noroeste 0 -- -- 66
2020-03-16 17:00:00 8.9 39 Noroeste 58 Noroeste 0 -- -- 62
2020-03-16 16:00:00 10.6 36 Noroeste 55 Noroeste 0 -- -- 54
2020-03-16 15:00:00 9.2 33 Noroeste 57 Noroeste 0 -- -- 55
2020-03-16 14:00:00 9.2 42 Noroeste 62 Noroeste 0 -- -- 55
2020-03-16 13:00:00 10.3 40 Noroeste 57 Noroeste 0 -- -- 52
2020-03-16 12:00:00 8.6 38 Noroeste 58 Noroeste 0 -- -- 58
2020-03-16 11:00:00 8.9 37 Noroeste 59 Noroeste 0 -- -- 57
2020-03-16 10:00:00 7 39 Noroeste 55 Noroeste 0 -- -- 65
2020-03-16 09:00:00 5.3 30 Noroeste 40 Noroeste 0 -- -- 70
2020-03-16 08:00:00 3.3 19 Noroeste 43 Noroeste 0 -- -- 75
2020-03-16 07:00:00 3.5 28 Noroeste 37 Noroeste 0 -- -- 73
2020-03-16 06:00:00 3.8 26 Noroeste 46 Noroeste 0 -- -- 72
2020-03-16 05:00:00 4.2 29 Noroeste 38 Oeste 0 -- -- 70
2020-03-16 04:00:00 3.8 19 Noroeste 30 Noroeste 0 -- -- 74
2020-03-16 03:00:00 4.7 14 Oeste 40 Noroeste 0 -- -- 70
2020-03-16 02:00:00 5.6 32 Oeste 52 Oeste 0 -- -- 65
2020-03-16 01:00:00 6.8 32 Noroeste 47 Noroeste 0 -- -- 65
2020-03-16 00:00:00 8 21 Noroeste 41 Oeste 0 -- -- 69
2020-03-15 23:00:00 9.6 27 Oeste 41 Noroeste 0 -- -- 67
2020-03-15 22:00:00 12.2 26 Oeste 43 Oeste 0 -- -- 62
2020-03-15 21:00:00 13.6 27 Noroeste 43 Oeste 0 -- -- 54
2020-03-15 20:00:00 15.1 30 Oeste 45 Oeste 0 -- -- 59
2020-03-15 19:00:00 17.2 25 Oeste 41 Oeste 0 -- -- 61
2020-03-15 18:00:00 19.2 30 Oeste 43 Oeste 0 -- -- 53
2020-03-15 17:00:00 20.9 31 Oeste 45 Oeste 0 -- -- 47
2020-03-15 16:00:00 21.4 22 Sudoeste 33 Oeste 0 -- -- 47
2020-03-15 15:00:00 20.2 17 Oeste 25 Oeste 0 -- -- 54
2020-03-15 14:00:00 20.5 14 Sudoeste 23 Oeste 0 -- -- 56
2020-03-15 13:00:00 19.1 9 Sur 17 Sur 0 -- -- 62
2020-03-15 12:00:00 17 6 Sudeste 12 Sudeste 0 -- -- 66
2020-03-15 11:00:00 15 6 Sudeste 12 Sudeste 0 -- -- 76
2020-03-15 10:00:00 14.2 9 Sudeste 13 Sudeste 0 -- -- 83
2020-03-15 09:00:00 14 6 Este 12 Nordeste 0 -- -- 80
2020-03-15 08:00:00 12.3 8 Nordeste 10 Nordeste 0 -- -- 87
2020-03-15 07:00:00 11.4 6 Este 7 Este 0 -- -- 85
2020-03-15 06:00:00 11.7 2 Norte 10 Nordeste 0 -- -- 84
2020-03-15 05:00:00 12.6 9 Nordeste 11 Nordeste 0 -- -- 83
2020-03-15 04:00:00 12.9 9 Nordeste 13 Nordeste 0 -- -- 80
2020-03-15 03:00:00 13 6 Nordeste 9 Este 0 -- -- 79
2020-03-15 02:00:00 13.2 6 Nordeste 8 Nordeste 0 -- -- 78
2020-03-15 01:00:00 13.3 5 Nordeste 8 Sur 0 -- -- 78
2020-03-15 00:00:00 13.9 8 Sur 13 Nordeste 0 -- -- 77
2020-03-14 23:00:00 17.1 9 Norte 17 Noroeste 0 -- -- 65
2020-03-14 22:00:00 16.2 10 Norte 15 Norte 0 -- -- 66
2020-03-14 21:00:00 16.6 10 Norte 12 Noroeste 0 -- -- 66
2020-03-14 20:00:00 17.8 4 Noroeste 7 Oeste 0 -- -- 62
2020-03-14 19:00:00 20.6 6 Oeste 8 Oeste 0 -- -- 56
2020-03-14 18:00:00 21.3 5 Oeste 10 Sur 0 -- -- 50
2020-03-14 17:00:00 21.2 5 Oeste 11 Oeste 0 -- -- 53
2020-03-14 16:00:00 20.4 5 Sur 12 Sur 0 -- -- 59
2020-03-14 15:00:00 19.1 4 Sur 12 Sur 0 -- -- 71
2020-03-14 14:00:00 17 5 Sudeste 13 Este 0 -- -- 82
2020-03-14 13:00:00 14.4 9 Sudeste 17 Este 0 -- -- 90
2020-03-14 12:00:00 12.3 10 Este 18 Sudeste 0 -- -- 98
2020-03-14 11:00:00 12.1 9 Este 18 Este 0 -- -- 99
2020-03-14 10:00:00 11.7 10 Este 17 Este 0 -- -- 99
2020-03-14 09:00:00 11.3 11 Este 16 Nordeste 0 -- -- 99
2020-03-14 08:00:00 11.3 12 Nordeste 19 Este 0 -- -- 98
2020-03-14 07:00:00 11.3 10 Nordeste 15 Nordeste 0 -- -- 98
2020-03-14 06:00:00 11.4 14 Este 23 Este 0 -- -- 98
2020-03-14 05:00:00 11.4 17 Este 25 Este 0 -- -- 98
2020-03-14 04:00:00 11.3 11 Nordeste 22 Nordeste 0 -- -- 98
2020-03-14 03:00:00 11.2 14 Nordeste 22 Este 0 -- -- 97
2020-03-14 02:00:00 12.2 3 Oeste 9 Noroeste 0 -- -- 92
2020-03-14 01:00:00 12.3 10 Noroeste 13 Noroeste 0 -- -- 92
2020-03-14 00:00:00 12 6 Oeste 10 Oeste 0 -- -- 94
2020-03-13 23:00:00 12.6 9 Oeste 12 Oeste 0 -- -- 92
2020-03-13 22:00:00 14.3 5 Sudoeste 9 Oeste 0 -- -- 82
2020-03-13 21:00:00 14.7 2 Noroeste 13 Noroeste 0 -- -- 81
2020-03-13 20:00:00 16.7 4 Oeste 15 Noroeste 0 -- -- 72
2020-03-13 19:00:00 18.5 12 Noroeste 21 Oeste 0 -- -- 64
2020-03-13 18:00:00 19.8 14 Oeste 25 Sudoeste 0 -- -- 63
2020-03-13 17:00:00 19.7 15 Sudoeste 21 Sudoeste 0 -- -- 63
2020-03-13 16:00:00 20 11 Sudoeste 14 Sudoeste 0 -- -- 62
2020-03-13 15:00:00 18.4 9 Sudoeste 18 Sudoeste 0 -- -- 71
2020-03-13 14:00:00 16.9 9 Sudoeste 15 Oeste 0 -- -- 75
2020-03-13 13:00:00 14.8 8 Sudoeste 16 Sur 0 -- -- 81
2020-03-13 12:00:00 14.4 8 Sur 14 Sudoeste 0 -- -- 84
2020-03-13 11:00:00 14.7 9 Sur 12 Sudoeste 0 -- -- 81
2020-03-13 10:00:00 14.4 8 Este 13 Este 0 -- -- 79
2020-03-13 09:00:00 11.9 6 Nordeste 9 Nordeste 0 -- -- 87
2020-03-13 08:00:00 11 6 Este 11 Este 0 -- -- 88
2020-03-13 07:00:00 11.6 7 Nordeste 11 Nordeste 0 -- -- 83
2020-03-13 06:00:00 12.1 6 Este 11 Este 0 -- -- 79
2020-03-13 05:00:00 12.3 7 Este 11 Nordeste 0 -- -- 78
2020-03-13 04:00:00 12.6 3 Sudeste 6 Norte 0 -- -- 77
2020-03-13 03:00:00 12.4 0 Calma 5 Nordeste 0 -- -- 77
2020-03-13 02:00:00 14.5 4 Sudoeste 8 Noroeste 0 -- -- 69
2020-03-13 01:00:00 15.6 7 Noroeste 15 Noroeste 0 -- -- 66
2020-03-13 00:00:00 16.2 12 Noroeste 18 Noroeste 0 -- -- 61
2020-03-12 23:00:00 16.2 13 Noroeste 19 Noroeste 0 -- -- 58
2020-03-12 22:00:00 17.2 9 Oeste 15 Noroeste 0 -- -- 54
2020-03-12 21:00:00 18.2 15 Noroeste 26 Noroeste 0 -- -- 52
2020-03-12 20:00:00 20.1 17 Noroeste 24 Noroeste 0 -- -- 48
2020-03-12 19:00:00 21.7 8 Oeste 13 Noroeste 0 -- -- 46
2020-03-12 18:00:00 23.8 9 Oeste 16 Sudoeste 0 -- -- 39
2020-03-12 17:00:00 24.7 4 Sudeste 11 Este 0 -- -- 35
2020-03-12 16:00:00 24.3 6 Este 16 Sudeste 0 -- -- 37
2020-03-12 15:00:00 23.9 9 Sudeste 17 Sudeste 0 -- -- 37
2020-03-12 14:00:00 23.3 10 Sudeste 19 Este 0 -- -- 38
2020-03-12 13:00:00 23.3 11 Este 18 Este 0 -- -- 44
2020-03-12 12:00:00 22.2 9 Sudeste 17 Este 0 -- -- 47
2020-03-12 11:00:00 21.3 13 Este 19 Este 0 -- -- 46
2020-03-12 10:00:00 20.5 13 Este 20 Nordeste 0 -- -- 45
2020-03-12 09:00:00 17.7 13 Nordeste 19 Nordeste 0 -- -- 51
2020-03-12 08:00:00 14.3 10 Nordeste 14 Nordeste 0 -- -- 61
2020-03-12 07:00:00 14.4 4 Noroeste 9 Este 0 -- -- 58
2020-03-12 06:00:00 16.6 5 Este 10 Este 0 -- -- 51
2020-03-12 05:00:00 15.7 7 Este 8 Este 0 -- -- 55
2020-03-12 04:00:00 16.2 2 Sudoeste 6 Sudeste 0 -- -- 52
2020-03-12 03:00:00 17.4 0 Calma 21 Nordeste 0 -- -- 49
2020-03-12 02:00:00 21.5 17 Nordeste 23 Nordeste 0 -- -- 36
2020-03-12 01:00:00 21.7 16 Nordeste 23 Este 0 -- -- 33
2020-03-12 00:00:00 21.6 17 Nordeste 23 Nordeste 0 -- -- 32
2020-03-11 23:00:00 21.4 15 Nordeste 18 Este 0 -- -- 30
2020-03-11 22:00:00 21.2 12 Este 14 Este 0 -- -- 31
2020-03-11 21:00:00 19.5 9 Nordeste 13 Nordeste 0 -- -- 45
2020-03-11 20:00:00 18.9 11 Nordeste 13 Nordeste 0 -- -- 48
2020-03-11 19:00:00 21.4 8 Norte 10 Norte 0 -- -- 51
2020-03-11 18:00:00 23.8 3 Nordeste 13 Este 0 -- -- 51
2020-03-11 17:00:00 24.4 10 Nordeste 14 Nordeste 0 -- -- 40
2020-03-11 16:00:00 24.7 9 Este 13 Nordeste 0 -- -- 34
2020-03-11 15:00:00 24.3 5 Este 11 Este 0 -- -- 38
2020-03-11 14:00:00 24 8 Este 23 Sudeste 0 -- -- 38
2020-03-11 13:00:00 22.5 11 Sudeste 20 Este 0 -- -- 46
2020-03-11 12:00:00 21.2 10 Sudeste 17 Este 0 -- -- 49
2020-03-11 11:00:00 20 14 Este 17 Este 0 -- -- 47
2020-03-11 10:00:00 18.4 12 Este 15 Este 0 -- -- 51
2020-03-11 09:00:00 15.9 7 Este 10 Este 0 -- -- 57
2020-03-11 08:00:00 11.9 0 Calma 6 Noroeste 0 -- -- 68
2020-03-11 07:00:00 12.1 5 Nordeste 11 Este 0 -- -- 68
2020-03-11 06:00:00 12.1 6 Nordeste 12 Nordeste 0 -- -- 68
2020-03-11 05:00:00 12.9 11 Nordeste 13 Nordeste 0 -- -- 65
2020-03-11 04:00:00 12.6 4 Nordeste 6 Nordeste 0 -- -- 67
2020-03-11 03:00:00 13.6 2 Este 5 Nordeste 0 -- -- 62
2020-03-11 02:00:00 13.6 3 Nordeste 9 Este 0 -- -- 63
2020-03-11 01:00:00 15.4 5 Sudeste 13 Norte 0 -- -- 57
2020-03-11 00:00:00 17.9 14 Norte 19 Norte 0 -- -- 50
2020-03-10 23:00:00 16.2 9 Norte 14 Norte 0 -- -- 53
2020-03-10 22:00:00 15.8 8 Norte 9 Norte 0 -- -- 56
2020-03-10 21:00:00 17.6 4 Noroeste 9 Noroeste 0 -- -- 52
2020-03-10 20:00:00 18.6 6 Noroeste 8 Noroeste 0 -- -- 49
2020-03-10 19:00:00 21.6 5 Sudoeste 12 Sudoeste 0 -- -- 44
2020-03-10 18:00:00 22.7 9 Sudoeste 16 Sudoeste 0 -- -- 40
2020-03-10 17:00:00 22.8 8 Sudoeste 15 Sudoeste 0 -- -- 38
2020-03-10 16:00:00 22.2 5 Sudoeste 17 Oeste 0 -- -- 38
2020-03-10 15:00:00 21.3 7 Sudoeste 13 Sudoeste 0 -- -- 39
2020-03-10 14:00:00 20.3 4 Sur 12 Sudeste 0 -- -- 39
2020-03-10 13:00:00 19.5 6 Sudeste 17 Este 0 -- -- 44
2020-03-10 12:00:00 17.5 10 Este 15 Sudeste 0 -- -- 42
2020-03-10 11:00:00 16.4 8 Sudeste 13 Sudeste 0 -- -- 55
2020-03-10 10:00:00 14.6 6 Sudeste 9 Sudeste 0 -- -- 61
2020-03-10 09:00:00 13.8 8 Este 17 Nordeste 0 -- -- 54
2020-03-10 08:00:00 11.3 13 Nordeste 20 Este 0 -- -- 57
2020-03-10 07:00:00 9.7 10 Nordeste 15 Este 0 -- -- 64
2020-03-10 06:00:00 10.3 8 Este 9 Este 0 -- -- 59
2020-03-10 05:00:00 9.6 3 Este 9 Nordeste 0 -- -- 63
2020-03-10 04:00:00 10.5 4 Noroeste 13 Norte 0 -- -- 54
2020-03-10 03:00:00 10 7 Noroeste 13 Noroeste 0 -- -- 58
2020-03-10 02:00:00 10.2 8 Nordeste 10 Nordeste 0 -- -- 59
2020-03-10 01:00:00 10.9 7 Nordeste 16 Noroeste 0 -- -- 56
2020-03-10 00:00:00 11.8 6 Noroeste 15 Noroeste 0 -- -- 54
2020-03-09 23:00:00 11.6 15 Noroeste 20 Noroeste 0 -- -- 55
2020-03-09 22:00:00 13.6 6 Sudeste 10 Noroeste 0 -- -- 45
2020-03-09 21:00:00 15 6 Norte 22 Noroeste 0 -- -- 40
2020-03-09 20:00:00 14.4 18 Noroeste 21 Noroeste 0 -- -- 47
2020-03-09 19:00:00 16.9 12 Noroeste 18 Noroeste 0 -- -- 40
2020-03-09 18:00:00 18.3 13 Noroeste 26 Noroeste 0 -- -- 38
2020-03-09 17:00:00 18.4 20 Noroeste 30 Oeste 0 -- -- 39
2020-03-09 16:00:00 18.3 14 Noroeste 27 Noroeste 0 -- -- 40
2020-03-09 15:00:00 17.5 20 Noroeste 31 Oeste 0 -- -- 41
2020-03-09 14:00:00 16.6 15 Noroeste 26 Noroeste 0 -- -- 47
2020-03-09 13:00:00 14.9 10 Noroeste 25 Oeste 0 -- -- 57
2020-03-09 12:00:00 13.6 18 Noroeste 26 Noroeste 0 -- -- 53
2020-03-09 11:00:00 12.1 21 Noroeste 28 Noroeste 0 -- -- 64
2020-03-09 10:00:00 10.1 12 Oeste 22 Noroeste 0 -- -- 75
2020-03-09 09:00:00 7.3 10 Oeste 15 Noroeste 0 -- -- 89
2020-03-09 08:00:00 6 12 Oeste 21 Oeste 0 -- -- 88
2020-03-09 07:00:00 6.7 15 Oeste 28 Oeste 0 -- -- 89
2020-03-09 06:00:00 8.2 16 Oeste 22 Noroeste 0 -- -- 81
2020-03-09 05:00:00 8.1 18 Noroeste 29 Noroeste 0 -- -- 85
2020-03-09 04:00:00 8.9 22 Noroeste 29 Noroeste 0 -- -- 83
2020-03-09 03:00:00 9.3 17 Noroeste 22 Noroeste 0 -- -- 83
2020-03-09 02:00:00 9.4 14 Noroeste 28 Noroeste 0 -- -- 84
2020-03-09 01:00:00 10 15 Noroeste 26 Noroeste 0 -- -- 81
2020-03-09 00:00:00 10.6 14 Noroeste 21 Noroeste 0 -- -- 78
2020-03-08 23:00:00 10.2 9 Noroeste 15 Oeste 0 -- -- 78
2020-03-08 22:00:00 10.5 13 Oeste 21 Noroeste 0 -- -- 73
2020-03-08 21:00:00 11.4 12 Noroeste 22 Noroeste 0 -- -- 69
2020-03-08 20:00:00 12.2 12 Noroeste 28 Noroeste 0 -- -- 65
2020-03-08 19:00:00 14 16 Oeste 25 Oeste 0 -- -- 63
2020-03-08 18:00:00 15.2 15 Oeste 32 Noroeste 0 -- -- 56
2020-03-08 17:00:00 16.6 21 Noroeste 29 Noroeste 0 -- -- 45
2020-03-08 16:00:00 17.1 13 Oeste 21 Oeste 0 -- -- 45
2020-03-08 15:00:00 16.9 12 Sudoeste 22 Sudoeste 0 -- -- 52
2020-03-08 14:00:00 15.8 13 Sudoeste 28 Sudoeste 0 -- -- 55
2020-03-08 13:00:00 14.8 10 Sudoeste 18 Oeste 0 -- -- 61
2020-03-08 12:00:00 13.6 8 Sudoeste 12 Sudoeste 0 -- -- 62
2020-03-08 11:00:00 11.4 4 Sudoeste 8 Sudoeste 0 -- -- 69
2020-03-08 10:00:00 9.5 4 Sudoeste 8 Sudoeste 0 -- -- 74
2020-03-08 09:00:00 7.4 3 Nordeste 9 Sudeste 0 -- -- 78
2020-03-08 08:00:00 6.9 6 Este 9 Este 0 -- -- 75
2020-03-08 07:00:00 5.6 4 Noroeste 10 Nordeste 0 -- -- 80
2020-03-08 06:00:00 5.4 3 Nordeste 7 Sudoeste 0 -- -- 77
2020-03-08 05:00:00 6.9 4 Sudeste 10 Noroeste 0 -- -- 73
2020-03-08 04:00:00 6.4 9 Noroeste 14 Noroeste 0 -- -- 78
2020-03-08 03:00:00 7.6 11 Nordeste 14 Nordeste 0 -- -- 71
2020-03-08 02:00:00 7.4 8 Nordeste 13 Sudeste 0 -- -- 71
2020-03-08 01:00:00 9.4 3 Nordeste 10 Norte 0 -- -- 64
2020-03-08 00:00:00 11.3 9 Norte 13 Norte 0 -- -- 54
2020-03-07 23:00:00 11 13 Noroeste 15 Norte 0 -- -- 57
2020-03-07 22:00:00 11.1 7 Norte 17 Noroeste 0 -- -- 57
2020-03-07 21:00:00 11.4 13 Norte 15 Noroeste 0 -- -- 56
2020-03-07 20:00:00 11.6 10 Noroeste 15 Noroeste 0 -- -- 57
2020-03-07 19:00:00 14.4 13 Noroeste 22 Noroeste 0 -- -- 49
2020-03-07 18:00:00 16.3 14 Noroeste 22 Oeste 0 -- -- 39
2020-03-07 17:00:00 16.9 15 Sudoeste 22 Sudoeste 0 -- -- 36
2020-03-07 16:00:00 16.3 9 Oeste 22 Sudoeste 0 -- -- 35
2020-03-07 15:00:00 15.5 8 Oeste 21 Oeste 0 -- -- 41
2020-03-07 14:00:00 14.1 9 Sudoeste 14 Sudoeste 0 -- -- 43
2020-03-07 13:00:00 13 8 Oeste 14 Sudoeste 0 -- -- 47
2020-03-07 12:00:00 12.1 8 Sur 13 Sur 0 -- -- 52
2020-03-07 11:00:00 10.1 4 Sudeste 12 Sudeste 0 -- -- 60
2020-03-07 10:00:00 9 5 Sudeste 14 Sudeste 0 -- -- 60
2020-03-07 09:00:00 5.6 4 Este 8 Sudeste 0 -- -- 70
2020-03-07 08:00:00 5 3 Este 11 Noroeste 0 -- -- 67
2020-03-07 07:00:00 4.7 9 Norte 12 Noroeste 0 -- -- 68
2020-03-07 06:00:00 6.3 0 Calma 10 Noroeste 0 -- -- 57
2020-03-07 05:00:00 6.8 6 Norte 26 Norte 0 -- -- 59
2020-03-07 04:00:00 6 13 Noroeste 28 Noroeste 0 -- -- 63
2020-03-07 03:00:00 7.8 24 Noroeste 44 Noroeste 0 -- -- 55
2020-03-07 02:00:00 8.1 23 Noroeste 35 Noroeste 0 -- -- 54
2020-03-07 01:00:00 7.8 6 Sur 31 Noroeste 0 -- -- 57
2020-03-07 00:00:00 8.6 16 Noroeste 53 Noroeste 0 -- -- 53
2020-03-06 23:00:00 9.2 30 Noroeste 49 Noroeste 0 -- -- 50
2020-03-06 22:00:00 9.9 32 Noroeste 46 Noroeste 0 -- -- 46
2020-03-06 21:00:00 10.9 32 Noroeste 51 Noroeste 0 -- -- 46
2020-03-06 20:00:00 11 13 Oeste 48 Noroeste 0 -- -- 50
2020-03-06 19:00:00 12.5 31 Noroeste 49 Noroeste 0 -- -- 45
2020-03-06 18:00:00 13.7 34 Noroeste 52 Noroeste 0 -- -- 43
2020-03-06 17:00:00 14.2 35 Noroeste 57 Noroeste 0 -- -- 42
2020-03-06 16:00:00 14.3 42 Noroeste 54 Noroeste 0 -- -- 42
2020-03-06 15:00:00 13.5 35 Noroeste 50 Noroeste 0 -- -- 46
2020-03-06 14:00:00 13.4 29 Noroeste 53 Noroeste 0 -- -- 49
2020-03-06 13:00:00 12.7 39 Noroeste 59 Noroeste 0 -- -- 48
2020-03-06 12:00:00 11.3 39 Noroeste 58 Noroeste 0 -- -- 55
2020-03-06 11:00:00 10.6 38 Noroeste 55 Oeste 0 -- -- 58
2020-03-06 10:00:00 9.5 30 Noroeste 45 Oeste 0 -- -- 67
2020-03-06 09:00:00 8.8 23 Oeste 39 Oeste 0 -- -- 88
2020-03-06 08:00:00 8.7 23 Oeste 34 Oeste 0 -- -- 89
2020-03-06 07:00:00 7.5 10 Oeste 15 Oeste 0 -- -- 94
2020-03-06 06:00:00 6.4 5 Oeste 9 Oeste 0 -- -- 93
2020-03-06 05:00:00 6.1 4 Sudeste 27 Oeste 0 -- -- 90
2020-03-06 04:00:00 7 13 Noroeste 19 Noroeste 0 -- -- 87
2020-03-06 03:00:00 5.7 14 Noroeste 17 Noroeste 0 -- -- 90
2020-03-06 02:00:00 6.6 8 Noroeste 16 Noroeste 0 -- -- 86
2020-03-06 01:00:00 6.7 15 Noroeste 21 Noroeste 0 -- -- 85
2020-03-06 00:00:00 7.1 16 Noroeste 27 Noroeste 0 -- -- 82
2020-03-05 23:00:00 8.6 18 Noroeste 44 Oeste 0 -- -- 75
2020-03-05 22:00:00 9.4 28 Noroeste 45 Noroeste 0 -- -- 72
2020-03-05 21:00:00 11 24 Oeste 50 Oeste 0 -- -- 65
2020-03-05 20:00:00 12.2 32 Oeste 50 Oeste 0 -- -- 63
2020-03-05 19:00:00 13.6 33 Oeste 47 Oeste 0 -- -- 61
2020-03-05 18:00:00 15 31 Noroeste 53 Oeste 0 -- -- 59
2020-03-05 17:00:00 15.4 36 Oeste 55 Oeste 0 -- -- 57
2020-03-05 16:00:00 15.3 30 Oeste 52 Oeste 0 -- -- 58
2020-03-05 15:00:00 14.5 36 Oeste 57 Oeste 0 -- -- 62
2020-03-05 14:00:00 13.9 35 Noroeste 60 Noroeste 0 -- -- 65
2020-03-05 13:00:00 13.7 36 Oeste 59 Oeste 0.2 -- -- 67
2020-03-05 12:00:00 12 33 Noroeste 46 Noroeste 0.2 -- -- 76
2020-03-05 11:00:00 11.4 30 Oeste 40 Oeste 0.8 -- -- 97
2020-03-05 10:00:00 11.2 21 Sudoeste 34 Sudoeste 0.4 -- -- 96
2020-03-05 09:00:00 11.2 22 Sudoeste 31 Sudoeste 0 -- -- 96
2020-03-05 08:00:00 11.2 15 Sudoeste 26 Sudoeste 0 -- -- 96
2020-03-05 07:00:00 11.4 17 Sudoeste 22 Sudoeste 0 -- -- 94
2020-03-05 06:00:00 11.3 17 Sudoeste 22 Sudoeste 0 -- -- 96
2020-03-05 05:00:00 11.3 2 Sur 9 Sudoeste 0 -- -- 93
2020-03-05 04:00:00 11.8 6 Sur 8 Sur 0 -- -- 91
2020-03-05 03:00:00 12 6 Oeste 13 Sudoeste 0 -- -- 89
2020-03-05 02:00:00 12.4 10 Oeste 14 Oeste 0 -- -- 88
2020-03-05 01:00:00 12.6 7 Noroeste 9 Noroeste 0 -- -- 87
2020-03-05 00:00:00 13 8 Oeste 14 Oeste 0 -- -- 85
2020-03-04 23:00:00 12.6 7 Norte 12 Noroeste 0 -- -- 83
2020-03-04 22:00:00 12.2 5 Noroeste 11 Noroeste 0 -- -- 83
2020-03-04 21:00:00 12 9 Noroeste 13 Noroeste 0 -- -- 81
2020-03-04 20:00:00 12.8 9 Noroeste 13 Oeste 0 -- -- 77
2020-03-04 19:00:00 15.2 11 Oeste 33 Oeste 0 -- -- 69
2020-03-04 18:00:00 16.8 18 Noroeste 31 Oeste 0 -- -- 62
2020-03-04 17:00:00 16.3 22 Oeste 38 Oeste 0 -- -- 66
2020-03-04 16:00:00 15.8 18 Oeste 33 Oeste 0 -- -- 68
2020-03-04 15:00:00 15.6 22 Oeste 35 Oeste 0 -- -- 69
2020-03-04 14:00:00 15.5 22 Oeste 31 Oeste 0 -- -- 72
2020-03-04 13:00:00 16.1 19 Oeste 36 Oeste 0 -- -- 64
2020-03-04 12:00:00 14.9 23 Oeste 33 Oeste 0 -- -- 69
2020-03-04 11:00:00 13.9 20 Oeste 29 Oeste 0 -- -- 80
2020-03-04 10:00:00 12.7 14 Oeste 19 Oeste 0 -- -- 87
2020-03-04 09:00:00 11.1 5 Oeste 18 Oeste 0 -- -- 93
2020-03-04 08:00:00 11.1 3 Oeste 13 Noroeste 0 -- -- 93
2020-03-04 07:00:00 11.6 7 Oeste 18 Noroeste 0 -- -- 91
2020-03-04 06:00:00 11.9 11 Noroeste 21 Oeste 0 -- -- 91
2020-03-04 05:00:00 12.4 13 Oeste 21 Oeste 0 -- -- 89
2020-03-04 04:00:00 12.4 12 Sudoeste 16 Sudoeste 0 -- -- 93
2020-03-04 03:00:00 12.5 9 Sudoeste 14 Oeste 0 -- -- 93
2020-03-04 02:00:00 12.8 9 Sudoeste 20 Oeste 0 -- -- 91
2020-03-04 01:00:00 12.7 11 Oeste 15 Oeste 0 -- -- 91
2020-03-04 00:00:00 12.7 7 Oeste 19 Oeste 0 -- -- 91
2020-03-03 23:00:00 12.8 8 Sudoeste 15 Oeste 0 -- -- 91
2020-03-03 22:00:00 12.9 10 Oeste 22 Noroeste 0 -- -- 89
2020-03-03 21:00:00 13.4 17 Noroeste 24 Oeste 0 -- -- 87
2020-03-03 20:00:00 13.8 19 Oeste 32 Oeste 0 -- -- 85
2020-03-03 19:00:00 15 20 Oeste 36 Oeste 0 -- -- 80
2020-03-03 18:00:00 15.3 24 Oeste 37 Oeste 0 -- -- 77
2020-03-03 17:00:00 14.7 23 Oeste 34 Oeste 0 -- -- 80
2020-03-03 16:00:00 13.6 19 Sudoeste 35 Sudoeste 0 -- -- 86
2020-03-03 15:00:00 12.9 23 Oeste 35 Sudoeste 0 -- -- 88
2020-03-03 14:00:00 12.6 27 Oeste 42 Sudoeste 0 -- -- 89
2020-03-03 13:00:00 12.6 32 Sudoeste 44 Sudoeste 0 -- -- 87
2020-03-03 12:00:00 10.4 28 Sudoeste 37 Sudoeste 0 -- -- 90
2020-03-03 11:00:00 8.9 17 Sudoeste 23 Sudoeste 0 -- -- 92
2020-03-03 10:00:00 8.1 11 Sudoeste 16 Sudoeste 0 -- -- 94
2020-03-03 09:00:00 7.4 10 Sudoeste 15 Sudoeste 0 -- -- 95
2020-03-03 08:00:00 7.4 8 Sudoeste 14 Oeste 0 -- -- 94
2020-03-03 07:00:00 7.4 12 Oeste 22 Oeste 0 -- -- 90
2020-03-03 06:00:00 6.2 0 Calma 7 Oeste 0 -- -- 89
2020-03-03 05:00:00 5.7 5 Oeste 13 Noroeste 0 -- -- 88
2020-03-03 04:00:00 6.2 5 Noroeste 14 Noroeste 0 -- -- 84
2020-03-03 03:00:00 7 12 Noroeste 17 Noroeste 0 -- -- 80
2020-03-03 02:00:00 7.1 14 Noroeste 20 Noroeste 0 -- -- 80
2020-03-03 01:00:00 6.2 14 Noroeste 18 Noroeste 0 -- -- 79
2020-03-03 00:00:00 6.3 10 Noroeste 19 Noroeste 0 -- -- 74
2020-03-02 23:00:00 7 17 Noroeste 24 Noroeste 0 -- -- 71
2020-03-02 22:00:00 7.8 17 Noroeste 27 Noroeste 0 -- -- 67
2020-03-02 21:00:00 9 19 Noroeste 35 Noroeste 0 -- -- 62
2020-03-02 20:00:00 10.3 25 Oeste 49 Oeste 0 -- -- 58
2020-03-02 19:00:00 11.1 33 Noroeste 53 Oeste 0 -- -- 56
2020-03-02 18:00:00 12.4 36 Noroeste 51 Oeste 0 -- -- 55
2020-03-02 17:00:00 13.2 38 Oeste 59 Oeste 0 -- -- 53
2020-03-02 16:00:00 13.7 42 Noroeste 64 Oeste 0 -- -- 50
2020-03-02 15:00:00 13.7 41 Oeste 67 Oeste 0 -- -- 54
2020-03-02 14:00:00 13 39 Oeste 64 Oeste 0 -- -- 62
2020-03-02 13:00:00 12.4 42 Oeste 64 Oeste 0 -- -- 65
2020-03-02 12:00:00 12.7 52 Oeste 69 Oeste 0 -- -- 62
2020-03-02 11:00:00 12.3 36 Oeste 61 Oeste 0 -- -- 70
2020-03-02 10:00:00 11.6 37 Oeste 59 Oeste 0 -- -- 74
2020-03-02 09:00:00 11.6 37 Oeste 83 Oeste 0 -- -- 72
2020-03-02 08:00:00 12.6 44 Oeste 71 Oeste 0.2 -- -- 82
2020-03-02 07:00:00 12.2 47 Oeste 82 Noroeste 1 -- -- 89
2020-03-02 06:00:00 12.3 40 Sudoeste 58 Sudoeste 0.2 -- -- 95
2020-03-02 05:00:00 12.4 42 Sudoeste 60 Sudoeste 0 -- -- 92
2020-03-02 04:00:00 12.2 41 Sudoeste 61 Sudoeste 1 -- -- 92
2020-03-02 03:00:00 12.1 36 Sudoeste 50 Sudoeste 2.2 -- -- 96
2020-03-02 02:00:00 12.2 38 Sudoeste 55 Sudoeste 1 -- -- 93
2020-03-02 01:00:00 12.7 34 Sudoeste 49 Sudoeste 0 -- -- 89
2020-03-02 00:00:00 12.6 35 Sudoeste 58 Sudoeste 0.2 -- -- 89
2020-03-01 23:00:00 13 41 Sudoeste 57 Sudoeste 0.2 -- -- 90
2020-03-01 22:00:00 13.3 34 Sudoeste 53 Sudoeste 0.2 -- -- 86
2020-03-01 21:00:00 13.5 35 Sudoeste 50 Sudoeste 0 -- -- 86
2020-03-01 20:00:00 13.7 20 Sudoeste 36 Sudoeste 0 -- -- 90
2020-03-01 19:00:00 13.8 18 Sudoeste 35 Sudoeste 0 -- -- 89
2020-03-01 18:00:00 14.2 25 Sudoeste 49 Oeste 0.6 -- -- 91
2020-03-01 17:00:00 15.4 33 Sudoeste 44 Sudoeste 0.2 -- -- 80
2020-03-01 16:00:00 14.7 35 Sudoeste 49 Sudoeste 0 -- -- 85
2020-03-01 15:00:00 14.3 30 Sudoeste 42 Oeste 0 -- -- 82
2020-03-01 14:00:00 14.3 25 Sudoeste 39 Sudoeste 0 -- -- 84
2020-03-01 13:00:00 13.5 31 Sudoeste 41 Sudoeste 0 -- -- 80
2020-03-01 12:00:00 13.1 27 Sudoeste 37 Sudoeste 0 -- -- 82
2020-03-01 11:00:00 11.3 19 Sudoeste 26 Sudoeste 0 -- -- 92
2020-03-01 10:00:00 10.2 14 Sudoeste 26 Sudoeste 0 -- -- 95
2020-03-01 09:00:00 10.2 16 Sudoeste 23 Sudoeste 0 -- -- 92
2020-03-01 08:00:00 9.8 10 Oeste 15 Oeste 0 -- -- 93
2020-03-01 07:00:00 9.9 14 Oeste 25 Sudoeste 0 -- -- 93
2020-03-01 06:00:00 9.9 15 Sudoeste 19 Sudoeste 0 -- -- 93
2020-03-01 05:00:00 10 14 Oeste 22 Oeste 0 -- -- 89
2020-03-01 04:00:00 10 17 Oeste 24 Sudoeste 0 -- -- 88
2020-03-01 03:00:00 10.3 15 Sudoeste 34 Oeste 0 -- -- 87
2020-03-01 02:00:00 10.9 21 Oeste 31 Oeste 0 -- -- 79
2020-03-01 01:00:00 9.9 6 Sudoeste 17 Sudoeste 0 -- -- 80
2020-03-01 00:00:00 10.4 12 Oeste 21 Sudoeste 0 -- -- 74
2020-02-29 23:00:00 11 11 Oeste 23 Oeste 0 -- -- 73
2020-02-29 22:00:00 11.9 11 Oeste 29 Oeste 0 -- -- 74
2020-02-29 21:00:00 12.1 15 Oeste 18 Oeste 0 -- -- 77
2020-02-29 20:00:00 12.7 12 Oeste 23 Oeste 0 -- -- 78
2020-02-29 19:00:00 13.7 22 Oeste 36 Oeste 0 -- -- 73
2020-02-29 18:00:00 14.1 29 Oeste 39 Oeste 0 -- -- 76
2020-02-29 17:00:00 14.1 30 Oeste 42 Sudoeste 0 -- -- 82
2020-02-29 16:00:00 14.8 33 Sudoeste 44 Sudoeste 0 -- -- 82
2020-02-29 15:00:00 13.8 24 Sudoeste 38 Oeste 0 -- -- 85
2020-02-29 14:00:00 13.4 28 Sudoeste 37 Sudoeste 0 -- -- 87
2020-02-29 13:00:00 12.5 21 Sudoeste 31 Sudoeste 0 -- -- 88
2020-02-29 12:00:00 10.6 4 Sudeste 14 Este 0 -- -- 90
2020-02-29 11:00:00 9.8 10 Este 15 Sudeste 0 -- -- 93
2020-02-29 10:00:00 9.4 9 Sudeste 13 Sudeste 0 -- -- 94
2020-02-29 09:00:00 8.8 10 Sur 14 Sur 0 -- -- 96
2020-02-29 08:00:00 8.4 4 Sudeste 7 Sudeste 0 -- -- 92
2020-02-29 07:00:00 7.7 5 Sudoeste 15 Oeste 0 -- -- 87
2020-02-29 06:00:00 7 10 Oeste 16 Oeste 0 -- -- 89
2020-02-29 05:00:00 7.1 8 Oeste 13 Sur 0 -- -- 86
2020-02-29 04:00:00 8 8 Oeste 15 Oeste 0 -- -- 78
2020-02-29 03:00:00 9.2 10 Oeste 18 Sudoeste 0 -- -- 74
2020-02-29 02:00:00 9.9 5 Sudoeste 9 Sudoeste 0 -- -- 72
2020-02-29 01:00:00 11.3 4 Sudoeste 12 Sudoeste 0 -- -- 64
2020-02-29 00:00:00 12.2 9 Sudoeste 19 Sudoeste 0 -- -- 60